sensor_id;sensor_type;location;lat;lon;timestamp;pressure;altitude;pressure_sealevel;temperature;humidity
78613;BME280;67933;51.060;3.638;2023-09-12T00:00:56;101441.88;;;17.29;100.00
78613;BME280;67933;51.060;3.638;2023-09-12T00:03:23;101441.66;;;17.33;100.00
78613;BME280;67933;51.060;3.638;2023-09-12T00:08:17;101442.63;;;17.31;100.00
78613;BME280;67933;51.060;3.638;2023-09-12T00:10:43;101438.22;;;17.30;100.00
78613;BME280;67933;51.060;3.638;2023-09-12T00:13:08;101439.19;;;17.29;100.00
78613;BME280;67933;51.060;3.638;2023-09-12T00:15:33;101433.34;;;17.24;100.00
78613;BME280;67933;51.060;3.638;2023-09-12T00:17:59;101441.66;;;17.33;100.00
78613;BME280;67933;51.060;3.638;2023-09-12T00:20:24;101435.53;;;17.30;100.00
78613;BME280;67933;51.060;3.638;2023-09-12T00:22:50;101426.03;;;17.26;100.00
78613;BME280;67933;51.060;3.638;2023-09-12T00:25:15;101429.44;;;17.28;100.00
78613;BME280;67933;51.060;3.638;2023-09-12T00:27:41;101429.69;;;17.25;100.00
78613;BME280;67933;51.060;3.638;2023-09-12T00:30:06;101435.28;;;17.22;100.00
78613;BME280;67933;51.060;3.638;2023-09-12T00:32:32;101433.34;;;17.24;100.00
78613;BME280;67933;51.060;3.638;2023-09-12T00:34:57;101420.41;;;17.29;100.00
78613;BME280;67933;51.060;3.638;2023-09-12T00:37:23;101428.47;;;17.29;100.00
78613;BME280;67933;51.060;3.638;2023-09-12T00:39:48;101424.06;;;17.28;100.00
78613;BME280;67933;51.060;3.638;2023-09-12T00:42:13;101414.09;;;17.30;100.00
78613;BME280;67933;51.060;3.638;2023-09-12T00:44:39;101414.19;;;17.29;100.00
78613;BME280;67933;51.060;3.638;2023-09-12T00:47:05;101409.94;;;17.26;100.00
78613;BME280;67933;51.060;3.638;2023-09-12T00:49:31;101413.59;;;17.25;100.00
78613;BME280;67933;51.060;3.638;2023-09-12T00:51:57;101418.00;;;17.26;100.00
78613;BME280;67933;51.060;3.638;2023-09-12T00:54:24;101411.41;;;17.30;100.00
78613;BME280;67933;51.060;3.638;2023-09-12T00:56:49;101404.72;;;17.36;100.00
78613;BME280;67933;51.060;3.638;2023-09-12T00:59:16;101412.16;;;17.44;100.00
78613;BME280;67933;51.060;3.638;2023-09-12T01:01:42;101408.75;;;17.42;100.00
78613;BME280;67933;51.060;3.638;2023-09-12T01:04:09;101410.69;;;17.40;100.00
78613;BME280;67933;51.060;3.638;2023-09-12T01:06:35;101406.53;;;17.36;100.00
78613;BME280;67933;51.060;3.638;2023-09-12T01:09:00;101412.88;;;17.35;100.00
78613;BME280;67933;51.060;3.638;2023-09-12T01:11:26;101409.97;;;17.38;100.00
78613;BME280;67933;51.060;3.638;2023-09-12T01:13:51;101408.75;;;17.42;100.00
78613;BME280;67933;51.060;3.638;2023-09-12T01:16:17;101405.09;;;17.43;100.00
78613;BME280;67933;51.060;3.638;2023-09-12T01:18:42;101402.53;;;17.41;100.00
78613;BME280;67933;51.060;3.638;2023-09-12T01:26:29;101420.09;;;17.34;100.00
78613;BME280;67933;51.060;3.638;2023-09-12T01:28:55;101406.53;;;17.36;100.00
78613;BME280;67933;51.060;3.638;2023-09-12T01:31:23;101406.66;;;17.34;100.00
78613;BME280;67933;51.060;3.638;2023-09-12T01:33:54;101404.59;;;17.38;100.00
78613;BME280;67933;51.060;3.638;2023-09-12T01:36:20;101403.88;;;17.47;100.00
78613;BME280;67933;51.060;3.638;2023-09-12T01:38:45;101400.38;;;17.57;100.00
78613;BME280;67933;51.060;3.638;2023-09-12T01:41:11;101391.88;;;17.63;100.00
78613;BME280;67933;51.060;3.638;2023-09-12T01:43:37;101398.22;;;17.62;100.00
78613;BME280;67933;51.060;3.638;2023-09-12T01:46:04;101392.34;;;17.57;100.00
78613;BME280;67933;51.060;3.638;2023-09-12T01:48:34;101392.06;;;17.60;100.00
78613;BME280;67933;51.060;3.638;2023-09-12T01:51:02;101396.13;;;17.66;100.00
78613;BME280;67933;51.060;3.638;2023-09-12T01:53:28;101390.16;;;17.62;100.00
78613;BME280;67933;51.060;3.638;2023-09-12T01:55:56;101391.22;;;17.60;100.00
78613;BME280;67933;51.060;3.638;2023-09-12T01:58:22;101382.72;;;17.66;100.00
78613;BME280;67933;51.060;3.638;2023-09-12T02:00:48;101389.09;;;17.65;100.00
78613;BME280;67933;51.060;3.638;2023-09-12T02:03:14;101387.38;;;17.64;100.00
78613;BME280;67933;51.060;3.638;2023-09-12T02:05:39;101378.66;;;17.60;100.00
78613;BME280;67933;51.060;3.638;2023-09-12T02:08:05;101381.25;;;17.62;100.00
78613;BME280;67933;51.060;3.638;2023-09-12T02:10:31;101382.00;;;17.64;100.00
78613;BME280;67933;51.060;3.638;2023-09-12T02:12:57;101383.94;;;17.62;100.00
78613;BME280;67933;51.060;3.638;2023-09-12T02:15:22;101379.31;;;17.64;100.00
78613;BME280;67933;51.060;3.638;2023-09-12T02:17:47;101379.63;;;17.59;100.00
78613;BME280;67933;51.060;3.638;2023-09-12T02:20:15;101382.19;;;17.61;100.00
78613;BME280;67933;51.060;3.638;2023-09-12T02:22:41;101376.75;;;17.62;100.00
78613;BME280;67933;51.060;3.638;2023-09-12T02:25:07;101367.94;;;17.60;100.00
78613;BME280;67933;51.060;3.638;2023-09-12T02:27:33;101374.91;;;17.63;100.00
78613;BME280;67933;51.060;3.638;2023-09-12T02:29:59;101376.22;;;17.57;100.00
78613;BME280;67933;51.060;3.638;2023-09-12T02:32:24;101371.47;;;17.61;100.00
78613;BME280;67933;51.060;3.638;2023-09-12T02:34:49;101382.25;;;17.72;100.00
78613;BME280;67933;51.060;3.638;2023-09-12T02:37:15;101386.38;;;17.76;100.00
78613;BME280;67933;51.060;3.638;2023-09-12T02:39:41;101384.69;;;17.75;100.00
78613;BME280;67933;51.060;3.638;2023-09-12T02:42:06;101390.25;;;17.61;100.00
78613;BME280;67933;51.060;3.638;2023-09-12T02:44:32;101383.94;;;17.62;100.00
78613;BME280;67933;51.060;3.638;2023-09-12T02:46:57;101377.72;;;17.61;100.00
78613;BME280;67933;51.060;3.638;2023-09-12T02:49:23;101375.38;;;17.57;100.00
78613;BME280;67933;51.060;3.638;2023-09-12T02:51:48;101377.53;;;17.52;100.00
78613;BME280;67933;51.060;3.638;2023-09-12T02:54:13;101377.06;;;17.58;100.00
78613;BME280;67933;51.060;3.638;2023-09-12T02:56:39;101373.56;;;17.57;100.00
78613;BME280;67933;51.060;3.638;2023-09-12T02:59:04;101377.19;;;17.56;100.00
78613;BME280;67933;51.060;3.638;2023-09-12T03:01:30;101361.44;;;17.52;100.00
78613;BME280;67933;51.060;3.638;2023-09-12T03:03:55;101369.00;;;17.47;100.00
78613;BME280;67933;51.060;3.638;2023-09-12T03:06:21;101368.38;;;17.43;100.00
78613;BME280;67933;51.060;3.638;2023-09-12T03:08:47;101371.81;;;17.45;100.00
78613;BME280;67933;51.060;3.638;2023-09-12T03:11:13;101369.13;;;17.45;100.00
78613;BME280;67933;51.060;3.638;2023-09-12T03:13:39;101365.00;;;17.41;100.00
78613;BME280;67933;51.060;3.638;2023-09-12T03:16:09;101375.22;;;17.47;100.00
78613;BME280;67933;51.060;3.638;2023-09-12T03:18:34;101371.09;;;17.54;100.00
78613;BME280;67933;51.060;3.638;2023-09-12T03:21:00;101364.38;;;17.60;100.00
78613;BME280;67933;51.060;3.638;2023-09-12T03:23:25;101369.50;;;17.52;100.00
78613;BME280;67933;51.060;3.638;2023-09-12T03:25:52;101369.00;;;17.47;100.00
78613;BME280;67933;51.060;3.638;2023-09-12T03:28:17;101366.81;;;17.52;100.00
78613;BME280;67933;51.060;3.638;2023-09-12T03:30:43;101369.50;;;17.52;100.00
78613;BME280;67933;51.060;3.638;2023-09-12T03:33:08;101365.97;;;17.51;100.00
78613;BME280;67933;51.060;3.638;2023-09-12T03:35:34;101365.50;;;17.57;100.00
78613;BME280;67933;51.060;3.638;2023-09-12T03:38:00;101367.06;;;17.60;100.00
78613;BME280;67933;51.060;3.638;2023-09-12T03:40:29;101370.16;;;17.66;100.00
78613;BME280;67933;51.060;3.638;2023-09-12T03:42:58;101363.69;;;17.69;100.00
78613;BME280;67933;51.060;3.638;2023-09-12T03:45:24;101362.47;;;17.62;100.00
78613;BME280;67933;51.060;3.638;2023-09-12T03:47:49;101355.00;;;17.54;100.00
78613;BME280;67933;51.060;3.638;2023-09-12T03:50:15;101350.00;;;17.50;100.00
78613;BME280;67933;51.060;3.638;2023-09-12T03:52:40;101350.22;;;17.47;100.00
78613;BME280;67933;51.060;3.638;2023-09-12T03:55:06;101340.09;;;17.39;100.00
78613;BME280;67933;51.060;3.638;2023-09-12T03:57:31;101339.47;;;17.36;100.00
78613;BME280;67933;51.060;3.638;2023-09-12T03:59:57;101342.16;;;17.36;100.00
78613;BME280;67933;51.060;3.638;2023-09-12T04:02:23;101336.78;;;17.36;100.00
78613;BME280;67933;51.060;3.638;2023-09-12T04:04:48;101354.84;;;17.34;100.00
78613;BME280;67933;51.060;3.638;2023-09-12T04:07:13;101349.72;;;17.30;100.00
78613;BME280;67933;51.060;3.638;2023-09-12T04:09:39;101354.13;;;17.31;100.00
78613;BME280;67933;51.060;3.638;2023-09-12T04:12:05;101341.44;;;17.34;100.00
78613;BME280;67933;51.060;3.638;2023-09-12T04:14:31;101338.88;;;17.32;100.00
78613;BME280;67933;51.060;3.638;2023-09-12T04:16:57;101339.00;;;17.30;100.00
78613;BME280;67933;51.060;3.638;2023-09-12T04:19:22;101339.38;;;17.26;100.00
78613;BME280;67933;51.060;3.638;2023-09-12T04:21:48;101339.59;;;17.23;100.00
78613;BME280;67933;51.060;3.638;2023-09-12T04:24:13;101350.44;;;17.21;100.00
78613;BME280;67933;51.060;3.638;2023-09-12T04:26:38;101339.09;;;17.29;100.00
78613;BME280;67933;51.060;3.638;2023-09-12T04:29:04;101346.81;;;17.34;100.00
78613;BME280;67933;51.060;3.638;2023-09-12T04:31:29;101343.75;;;17.38;100.00
78613;BME280;67933;51.060;3.638;2023-09-12T04:33:54;101349.00;;;17.40;100.00
78613;BME280;67933;51.060;3.638;2023-09-12T04:36:20;101346.06;;;17.43;100.00
78613;BME280;67933;51.060;3.638;2023-09-12T04:38:46;101351.31;;;17.44;100.00
78613;BME280;67933;51.060;3.638;2023-09-12T04:41:12;101358.28;;;17.58;100.00
78613;BME280;67933;51.060;3.638;2023-09-12T04:43:41;101350.41;;;17.67;100.00
78613;BME280;67933;51.060;3.638;2023-09-12T04:46:06;101352.78;;;17.59;100.00
78613;BME280;67933;51.060;3.638;2023-09-12T04:48:32;101360.53;;;17.64;100.00
78613;BME280;67933;51.060;3.638;2023-09-12T04:50:57;101361.75;;;17.71;100.00
78613;BME280;67933;51.060;3.638;2023-09-12T04:53:23;101361.97;;;17.68;100.00
78613;BME280;67933;51.060;3.638;2023-09-12T04:55:48;101365.41;;;17.70;100.00
78613;BME280;67933;51.060;3.638;2023-09-12T04:58:14;101358.09;;;17.72;100.00
78613;BME280;67933;51.060;3.638;2023-09-12T05:00:40;101358.09;;;17.72;100.00
78613;BME280;67933;51.060;3.638;2023-09-12T05:03:06;101347.84;;;17.77;100.00
78613;BME280;67933;51.060;3.638;2023-09-12T05:05:34;101347.38;;;17.72;100.00
78613;BME280;67933;51.060;3.638;2023-09-12T05:08:00;101356.03;;;17.64;100.00
78613;BME280;67933;51.060;3.638;2023-09-12T05:10:26;101356.88;;;17.65;100.00
78613;BME280;67933;51.060;3.638;2023-09-12T05:12:51;101358.53;;;17.55;100.00
78613;BME280;67933;51.060;3.638;2023-09-12T05:15:17;101361.13;;;17.67;100.00
78613;BME280;67933;51.060;3.638;2023-09-12T05:17:42;101364.38;;;17.60;100.00
78613;BME280;67933;51.060;3.638;2023-09-12T05:20:08;101357.56;;;17.56;100.00
78613;BME280;67933;51.060;3.638;2023-09-12T05:22:33;101356.88;;;17.65;100.00
78613;BME280;67933;51.060;3.638;2023-09-12T05:24:59;101360.53;;;17.64;100.00
78613;BME280;67933;51.060;3.638;2023-09-12T05:27:24;101362.47;;;17.62;100.00
78613;BME280;67933;51.060;3.638;2023-09-12T05:29:49;101365.25;;;17.60;100.00
78613;BME280;67933;51.060;3.638;2023-09-12T05:32:15;101371.28;;;17.64;100.00
78613;BME280;67933;51.060;3.638;2023-09-12T05:34:43;101368.09;;;17.70;100.00
78613;BME280;67933;51.060;3.638;2023-09-12T05:37:10;101370.16;;;17.66;100.00
78613;BME280;67933;51.060;3.638;2023-09-12T05:39:35;101373.56;;;17.68;100.00
78613;BME280;67933;51.060;3.638;2023-09-12T05:42:01;101379.31;;;17.64;100.00
78613;BME280;67933;51.060;3.638;2023-09-12T05:44:26;101379.31;;;17.64;100.00
78613;BME280;67933;51.060;3.638;2023-09-12T05:46:52;101376.16;;;17.70;100.00
78613;BME280;67933;51.060;3.638;2023-09-12T05:49:17;101379.91;;;17.67;100.00
78613;BME280;67933;51.060;3.638;2023-09-12T05:51:42;101373.81;;;17.65;100.00
78613;BME280;67933;51.060;3.638;2023-09-12T05:54:09;101386.81;;;17.59;100.00
78613;BME280;67933;51.060;3.638;2023-09-12T05:56:35;101390.75;;;17.66;100.00
78613;BME280;67933;51.060;3.638;2023-09-12T05:59:00;101389.75;;;17.56;100.00
78613;BME280;67933;51.060;3.638;2023-09-12T06:01:26;101393.91;;;17.60;100.00
78613;BME280;67933;51.060;3.638;2023-09-12T06:03:51;101395.53;;;17.62;100.00
78613;BME280;67933;51.060;3.638;2023-09-12T06:06:17;101398.47;;;17.71;100.00
78613;BME280;67933;51.060;3.638;2023-09-12T06:08:42;101403.97;;;17.80;100.00
78613;BME280;67933;51.060;3.638;2023-09-12T06:11:08;101393.72;;;17.85;100.00
78613;BME280;67933;51.060;3.638;2023-09-12T06:13:33;101392.22;;;17.81;100.00
78613;BME280;67933;51.060;3.638;2023-09-12T06:16:00;101395.91;;;17.69;100.00
78613;BME280;67933;51.060;3.638;2023-09-12T06:18:26;101393.22;;;17.69;100.00
78613;BME280;67933;51.060;3.638;2023-09-12T06:20:54;101398.97;;;17.64;100.00
78613;BME280;67933;51.060;3.638;2023-09-12T06:23:19;101393.22;;;17.69;100.00
78613;BME280;67933;51.060;3.638;2023-09-12T06:25:44;101401.25;;;17.69;100.00
78613;BME280;67933;51.060;3.638;2023-09-12T06:28:10;101404.06;;;17.67;100.00
78613;BME280;67933;51.060;3.638;2023-09-12T06:30:36;101400.97;;;17.61;100.00
78613;BME280;67933;51.060;3.638;2023-09-12T06:33:01;101405.00;;;17.55;100.00
78613;BME280;67933;51.060;3.638;2023-09-12T06:35:26;101407.56;;;17.57;100.00
78613;BME280;67933;51.060;3.638;2023-09-12T06:37:52;101407.81;;;17.54;100.00
78613;BME280;67933;51.060;3.638;2023-09-12T06:40:18;101406.00;;;17.65;100.00
78613;BME280;67933;51.060;3.638;2023-09-12T06:42:44;101403.59;;;17.62;100.00
78613;BME280;67933;51.060;3.638;2023-09-12T06:45:09;101412.09;;;17.56;100.00
78613;BME280;67933;51.060;3.638;2023-09-12T06:47:35;101408.78;;;17.53;100.00
78613;BME280;67933;51.060;3.638;2023-09-12T06:50:02;101409.50;;;17.55;100.00
78613;BME280;67933;51.060;3.638;2023-09-12T06:52:27;101420.53;;;17.63;100.00
78613;BME280;67933;51.060;3.638;2023-09-12T06:54:53;101412.00;;;17.69;100.00
78613;BME280;67933;51.060;3.638;2023-09-12T06:57:18;101424.34;;;17.83;100.00
78613;BME280;67933;51.060;3.638;2023-09-12T06:59:44;101425.81;;;17.87;100.00
78613;BME280;67933;51.060;3.638;2023-09-12T07:02:09;101421.75;;;17.81;100.00
78613;BME280;67933;51.060;3.638;2023-09-12T07:04:36;101427.75;;;17.85;100.00
78613;BME280;67933;51.060;3.638;2023-09-12T07:07:02;101430.69;;;17.93;100.00
78613;BME280;67933;51.060;3.638;2023-09-12T07:09:27;101438.63;;;17.94;100.00
78613;BME280;67933;51.060;3.638;2023-09-12T07:11:53;101429.72;;;17.94;100.00
78613;BME280;67933;51.060;3.638;2023-09-12T07:14:18;101423.97;;;17.98;100.00
78613;BME280;67933;51.060;3.638;2023-09-12T07:16:43;101428.84;;;18.04;100.00
78613;BME280;67933;51.060;3.638;2023-09-12T07:19:09;101431.28;;;17.96;100.00
78613;BME280;67933;51.060;3.638;2023-09-12T07:21:35;101444.47;;;17.77;100.00
78613;BME280;67933;51.060;3.638;2023-09-12T07:24:01;101444.56;;;17.76;100.00
78613;BME280;67933;51.060;3.638;2023-09-12T07:26:26;101443.13;;;17.83;100.00
78613;BME280;67933;51.060;3.638;2023-09-12T07:28:51;101446.41;;;17.75;100.00
78613;BME280;67933;51.060;3.638;2023-09-12T07:31:17;101454.97;;;17.91;100.00
78613;BME280;67933;51.060;3.638;2023-09-12T07:33:43;101449.09;;;17.97;100.00
78613;BME280;67933;51.060;3.638;2023-09-12T07:36:08;101454.03;;;18.03;100.00
78613;BME280;67933;51.060;3.638;2023-09-12T07:38:34;101454.25;;;18.23;100.00
78613;BME280;67933;51.060;3.638;2023-09-12T07:41:01;101450.09;;;18.41;100.00
78613;BME280;67933;51.060;3.638;2023-09-12T07:43:28;101450.09;;;18.41;100.00
78613;BME280;67933;51.060;3.638;2023-09-12T07:45:57;101452.16;;;18.37;100.00
78613;BME280;67933;51.060;3.638;2023-09-12T07:48:22;101451.56;;;18.34;100.00
78613;BME280;67933;51.060;3.638;2023-09-12T07:50:48;101448.63;;;18.37;100.00
78613;BME280;67933;51.060;3.638;2023-09-12T07:53:14;101455.34;;;18.42;100.00
78613;BME280;67933;51.060;3.638;2023-09-12T07:55:39;101458.53;;;18.25;100.00
78613;BME280;67933;51.060;3.638;2023-09-12T07:58:15;101453.88;;;18.38;100.00
78613;BME280;67933;51.060;3.638;2023-09-12T08:00:41;101458.16;;;18.41;100.00
78613;BME280;67933;51.060;3.638;2023-09-12T08:03:07;101451.56;;;18.34;100.00
78613;BME280;67933;51.060;3.638;2023-09-12T08:05:33;101456.56;;;18.50;100.00
78613;BME280;67933;51.060;3.638;2023-09-12T08:07:58;101461.53;;;18.54;100.00
78613;BME280;67933;51.060;3.638;2023-09-12T08:10:24;101445.19;;;18.68;100.00
78613;BME280;67933;51.060;3.638;2023-09-12T08:12:49;101446.66;;;18.72;100.00
78613;BME280;67933;51.060;3.638;2023-09-12T08:15:14;101460.50;;;18.57;100.00
78613;BME280;67933;51.060;3.638;2023-09-12T08:17:40;101449.81;;;18.55;100.00
78613;BME280;67933;51.060;3.638;2023-09-12T08:20:07;101454.00;;;18.48;100.00
78613;BME280;67933;51.060;3.638;2023-09-12T08:22:35;101456.69;;;18.37;100.00
78613;BME280;67933;51.060;3.638;2023-09-12T08:25:01;101456.19;;;18.43;100.00
78613;BME280;67933;51.060;3.638;2023-09-12T08:27:26;101463.75;;;18.38;100.00
78613;BME280;67933;51.060;3.638;2023-09-12T08:29:52;101468.91;;;18.41;100.00
78613;BME280;67933;51.060;3.638;2023-09-12T08:32:17;101472.31;;;18.65;100.00
78613;BME280;67933;51.060;3.638;2023-09-12T08:34:43;101479.75;;;18.73;100.00
78613;BME280;67933;51.060;3.638;2023-09-12T08:37:08;101475.72;;;18.67;100.00
78613;BME280;67933;51.060;3.638;2023-09-12T08:39:44;101477.88;;;18.84;100.00
78613;BME280;67933;51.060;3.638;2023-09-12T08:42:14;101469.09;;;18.82;100.00
78613;BME280;67933;51.060;3.638;2023-09-12T08:44:41;101466.38;;;18.94;100.00
78613;BME280;67933;51.060;3.638;2023-09-12T08:47:07;101478.00;;;18.94;100.00
78613;BME280;67933;51.060;3.638;2023-09-12T08:49:34;101474.69;;;18.91;100.00
78613;BME280;67933;51.060;3.638;2023-09-12T08:52:00;101469.06;;;18.94;100.00
78613;BME280;67933;51.060;3.638;2023-09-12T08:54:25;101472.00;;;18.91;100.00
78613;BME280;67933;51.060;3.638;2023-09-12T08:56:51;101475.53;;;18.91;100.00
78613;BME280;67933;51.060;3.638;2023-09-12T08:59:17;101473.59;;;18.93;100.00
78613;BME280;67933;51.060;3.638;2023-09-12T09:01:43;101470.16;;;19.02;100.00
78613;BME280;67933;51.060;3.638;2023-09-12T09:04:10;101468.53;;;19.11;100.00
78613;BME280;67933;51.060;3.638;2023-09-12T09:06:36;101471.78;;;19.26;100.00
78613;BME280;67933;51.060;3.638;2023-09-12T09:09:05;101461.25;;;19.22;100.00
78613;BME280;67933;51.060;3.638;2023-09-12T09:11:31;101467.81;;;19.30;100.00
78613;BME280;67933;51.060;3.638;2023-09-12T09:13:56;101468.03;;;19.49;100.00
78613;BME280;67933;51.060;3.638;2023-09-12T09:16:22;101466.38;;;19.57;100.00
78613;BME280;67933;51.060;3.638;2023-09-12T09:19:02;101465.19;;;19.50;100.00
78613;BME280;67933;51.060;3.638;2023-09-12T09:21:32;101461.34;;;19.32;100.00
78613;BME280;67933;51.060;3.638;2023-09-12T09:24:00;101476.44;;;19.44;100.00
78613;BME280;67933;51.060;3.638;2023-09-12T09:29:09;101475.53;;;19.34;100.00
78613;BME280;67933;51.060;3.638;2023-09-12T09:31:35;101467.91;;;19.39;100.00
78613;BME280;67933;51.060;3.638;2023-09-12T09:34:01;101473.84;;;19.54;100.00
78613;BME280;67933;51.060;3.638;2023-09-12T09:36:27;101476.88;;;19.60;100.00
78613;BME280;67933;51.060;3.638;2023-09-12T09:38:54;101473.47;;;19.58;100.00
78613;BME280;67933;51.060;3.638;2023-09-12T09:41:22;101470.59;;;19.50;100.00
78613;BME280;67933;51.060;3.638;2023-09-12T09:43:51;101466.41;;;19.46;100.00
78613;BME280;67933;51.060;3.638;2023-09-12T09:46:17;101476.44;;;19.44;100.00
78613;BME280;67933;51.060;3.638;2023-09-12T09:48:50;101465.06;;;19.20;100.00
78613;BME280;67933;51.060;3.638;2023-09-12T09:51:16;101466.06;;;19.19;100.00
78613;BME280;67933;51.060;3.638;2023-09-12T09:53:42;101465.00;;;19.31;100.00
78613;BME280;67933;51.060;3.638;2023-09-12T09:58:35;101470.69;;;19.70;100.00
78613;BME280;67933;51.060;3.638;2023-09-12T10:01:01;101475.56;;;19.76;100.00
78613;BME280;67933;51.060;3.638;2023-09-12T10:03:29;101471.94;;;19.86;100.00
78613;BME280;67933;51.060;3.638;2023-09-12T10:05:59;101468.28;;;19.87;99.95
78613;BME280;67933;51.060;3.638;2023-09-12T10:08:27;101469.66;;;19.82;100.00
78613;BME280;67933;51.060;3.638;2023-09-12T10:10:53;101470.56;;;19.92;99.87
78613;BME280;67933;51.060;3.638;2023-09-12T10:13:19;101473.38;;;19.90;100.00
78613;BME280;67933;51.060;3.638;2023-09-12T10:15:47;101471.28;;;20.24;100.00
78613;BME280;67933;51.060;3.638;2023-09-12T10:18:15;101468.75;;;20.32;99.46
78613;BME280;67933;51.060;3.638;2023-09-12T10:20:52;101462.66;;;20.70;97.75
78613;BME280;67933;51.060;3.638;2023-09-12T10:23:35;101463.56;;;20.90;92.65
78613;BME280;67933;51.060;3.638;2023-09-12T10:26:10;101458.88;;;20.83;93.45
78613;BME280;67933;51.060;3.638;2023-09-12T10:28:38;101468.50;;;20.75;93.84
78613;BME280;67933;51.060;3.638;2023-09-12T10:31:06;101460.16;;;20.88;93.39
78613;BME280;67933;51.060;3.638;2023-09-12T10:33:32;101456.44;;;20.80;93.22
78613;BME280;67933;51.060;3.638;2023-09-12T10:35:58;101470.50;;;20.73;94.53
78613;BME280;67933;51.060;3.638;2023-09-12T10:38:26;101461.25;;;20.76;95.03
78613;BME280;67933;51.060;3.638;2023-09-12T10:40:54;101465.22;;;20.72;94.69
78613;BME280;67933;51.060;3.638;2023-09-12T10:43:20;101469.34;;;20.76;94.58
78613;BME280;67933;51.060;3.638;2023-09-12T10:45:48;101463.72;;;20.89;96.36
78613;BME280;67933;51.060;3.638;2023-09-12T10:48:14;101455.22;;;21.12;93.70
78613;BME280;67933;51.060;3.638;2023-09-12T10:50:40;101461.91;;;21.28;92.88
78613;BME280;67933;51.060;3.638;2023-09-12T10:55:36;101456.88;;;21.71;89.14
78613;BME280;67933;51.060;3.638;2023-09-12T10:58:04;101461.56;;;21.98;88.26
78613;BME280;67933;51.060;3.638;2023-09-12T11:00:30;101464.03;;;22.19;86.49
78613;BME280;67933;51.060;3.638;2023-09-12T11:03:35;101467.09;;;21.97;89.72
78613;BME280;67933;51.060;3.638;2023-09-12T11:05:52;101460.63;;;22.17;87.42
78613;BME280;67933;51.060;3.638;2023-09-12T11:08:20;101461.81;;;22.32;90.16
78613;BME280;67933;51.060;3.638;2023-09-12T11:11:18;101463.31;;;22.72;86.98
78613;BME280;67933;51.060;3.638;2023-09-12T11:13:44;101457.91;;;22.72;83.42
78613;BME280;67933;51.060;3.638;2023-09-12T11:16:15;101455.81;;;23.11;85.21
78613;BME280;67933;51.060;3.638;2023-09-12T11:19:15;101452.34;;;23.54;83.97
78613;BME280;67933;51.060;3.638;2023-09-12T11:21:52;101463.63;;;23.31;81.21
78613;BME280;67933;51.060;3.638;2023-09-12T11:24:20;101454.25;;;23.08;81.47
78613;BME280;67933;51.060;3.638;2023-09-12T11:29:20;101458.63;;;23.80;79.30
78613;BME280;67933;51.060;3.638;2023-09-12T11:31:59;101448.78;;;23.35;81.12
78613;BME280;67933;51.060;3.638;2023-09-12T11:34:25;101453.75;;;23.22;79.77
78613;BME280;67933;51.060;3.638;2023-09-12T11:36:58;101453.03;;;23.38;81.92
78613;BME280;67933;51.060;3.638;2023-09-12T11:39:28;101459.06;;;23.50;80.80
78613;BME280;67933;51.060;3.638;2023-09-12T11:41:55;101454.03;;;23.55;78.05
78613;BME280;67933;51.060;3.638;2023-09-12T11:44:21;101454.03;;;23.37;80.23
78613;BME280;67933;51.060;3.638;2023-09-12T11:46:48;101456.81;;;23.63;79.39
78613;BME280;67933;51.060;3.638;2023-09-12T11:49:15;101456.44;;;23.22;79.83
78613;BME280;67933;51.060;3.638;2023-09-12T11:51:51;101448.25;;;23.14;80.41
78613;BME280;67933;51.060;3.638;2023-09-12T11:54:34;101447.84;;;23.09;77.89
78613;BME280;67933;51.060;3.638;2023-09-12T11:57:02;101449.72;;;22.91;79.47
78613;BME280;67933;51.060;3.638;2023-09-12T11:59:30;101457.13;;;22.89;81.79
78613;BME280;67933;51.060;3.638;2023-09-12T12:01:56;101457.47;;;23.21;83.43
78613;BME280;67933;51.060;3.638;2023-09-12T12:04:23;101458.38;;;23.12;79.41
78613;BME280;67933;51.060;3.638;2023-09-12T12:06:51;101455.84;;;23.72;80.02
78613;BME280;67933;51.060;3.638;2023-09-12T12:09:17;101455.84;;;24.24;75.42
78613;BME280;67933;51.060;3.638;2023-09-12T12:11:47;101448.84;;;25.05;74.28
78613;BME280;67933;51.060;3.638;2023-09-12T12:14:17;101442.31;;;24.74;72.63
78613;BME280;67933;51.060;3.638;2023-09-12T12:16:45;101444.38;;;24.88;71.89
78613;BME280;67933;51.060;3.638;2023-09-12T12:19:12;101433.75;;;25.43;71.08
78613;BME280;67933;51.060;3.638;2023-09-12T12:21:39;101432.06;;;25.75;69.06
78613;BME280;67933;51.060;3.638;2023-09-12T12:24:05;101423.38;;;26.73;66.72
78613;BME280;67933;51.060;3.638;2023-09-12T12:26:33;101416.03;;;27.28;66.29
78613;BME280;67933;51.060;3.638;2023-09-12T12:29:00;101416.28;;;26.87;63.44
78613;BME280;67933;51.060;3.638;2023-09-12T12:31:26;101407.56;;;27.00;65.42
78613;BME280;67933;51.060;3.638;2023-09-12T12:33:56;101402.72;;;27.85;60.88
78613;BME280;67933;51.060;3.638;2023-09-12T12:36:22;101399.22;;;28.06;61.71
78613;BME280;67933;51.060;3.638;2023-09-12T12:38:49;101396.81;;;28.76;61.54
78613;BME280;67933;51.060;3.638;2023-09-12T12:41:48;101408.25;;;28.36;60.80
78613;BME280;67933;51.060;3.638;2023-09-12T12:44:07;101407.00;;;26.51;62.84
78613;BME280;67933;51.060;3.638;2023-09-12T12:46:32;101401.25;;;25.98;66.13
78613;BME280;67933;51.060;3.638;2023-09-12T12:48:58;101401.72;;;26.02;70.69
78613;BME280;67933;51.060;3.638;2023-09-12T12:51:24;101402.88;;;25.60;67.00
78613;BME280;67933;51.060;3.638;2023-09-12T12:53:52;101393.00;;;26.23;65.82
78613;BME280;67933;51.060;3.638;2023-09-12T12:56:22;101403.09;;;26.76;61.78
78613;BME280;67933;51.060;3.638;2023-09-12T12:58:54;101393.00;;;26.62;62.77